Time;durP1;ratioP1;P1;durP2;ratioP2;P2;SDS_P1;SDS_P2;PMS_P1;PMS_P2;Temp;Humidity;BMP_temperature;BMP_pressure;BME280_temperature;BME280_humidity;BME280_pressure;Samples;Min_cycle;Max_cycle;Signal;HPM_P1;HPM_P2
2021/10/28 00:14:37;;;;;;;25.87;13.87;;;;;;;14.79;61.36;100485.69;4990689;28;20134;-67
2021/10/28 00:17:10;;;;;;;31.50;12.47;;;;;;;14.85;61.33;100480.81;4976840;28;20481;-68
2021/10/28 00:19:43;;;;;;;37.63;14.67;;;;;;;14.83;61.32;100475.47;4975955;28;20093;-65
2021/10/28 00:22:12;;;;;;;23.27;12.27;;;;;;;14.81;61.34;100466.53;4975523;28;20558;-64
2021/10/28 00:24:39;;;;;;;24.83;13.13;;;;;;;14.90;61.06;100475.91;4976528;28;20081;-64
2021/10/28 00:27:06;;;;;;;25.57;12.50;;;;;;;14.88;61.11;100471.75;4994252;28;20106;-64
2021/10/28 00:29:33;;;;;;;28.83;12.83;;;;;;;14.87;61.08;100464.44;4990225;28;20061;-67
2021/10/28 00:32:01;;;;;;;26.57;13.70;;;;;;;14.88;60.78;100475.41;4992202;28;20502;-66
2021/10/28 00:34:28;;;;;;;29.37;13.43;;;;;;;14.89;60.93;100473.41;5001483;28;20491;-66
2021/10/28 00:36:55;;;;;;;26.17;15.27;;;;;;;14.92;60.92;100473.63;4977978;28;20135;-67
2021/10/28 00:39:22;;;;;;;28.47;14.17;;;;;;;14.95;60.56;100465.72;4986922;28;20125;-70
2021/10/28 00:41:49;;;;;;;31.60;14.03;;;;;;;15.00;60.24;100466.44;4991793;28;20125;-70
2021/10/28 00:44:16;;;;;;;30.90;14.50;;;;;;;15.07;59.97;100472.47;4992232;28;20454;-66
2021/10/28 00:46:43;;;;;;;26.83;14.57;;;;;;;15.08;60.10;100473.31;4992501;28;20054;-71
2021/10/28 00:49:12;;;;;;;26.50;12.97;;;;;;;15.05;60.21;100465.50;4985163;28;20133;-70
2021/10/28 00:51:40;;;;;;;27.77;13.53;;;;;;;14.99;60.48;100461.13;4994207;28;20463;-74
2021/10/28 00:54:12;;;;;;;26.03;13.60;;;;;;;14.82;60.64;100445.72;4976590;28;20085;-63
2021/10/28 00:56:42;;;;;;;24.30;10.50;;;;;;;14.80;60.90;100461.22;4986162;28;20089;-63
2021/10/28 00:59:10;;;;;;;18.52;9.82;;;;;;;14.33;61.58;100416.28;4980449;28;20139;-64
2021/10/28 01:01:37;;;;;;;20.97;10.77;;;;;;;14.48;62.19;100457.28;4981995;28;20085;-77
2021/10/28 01:04:05;;;;;;;25.13;13.20;;;;;;;14.33;62.82;100460.41;4975085;28;20130;-71
2021/10/28 01:06:32;;;;;;;31.53;11.53;;;;;;;14.16;62.68;100433.72;4991327;28;20130;-65
2021/10/28 01:08:59;;;;;;;17.33;11.27;;;;;;;14.23;62.91;100456.63;4988980;28;20450;-68
2021/10/28 01:11:27;;;;;;;18.17;8.97;;;;;;;14.16;63.18;100446.94;4991170;28;22405;-67
2021/10/28 01:13:58;;;;;;;15.20;6.80;;;;;;;14.13;63.28;100447.53;4992323;28;20078;-67
2021/10/28 01:16:26;;;;;;;13.97;6.83;;;;;;;14.06;63.53;100439.50;4990880;28;20467;-69
2021/10/28 01:18:53;;;;;;;20.27;10.40;;;;;;;14.20;63.24;100459.19;4982050;28;20081;-70
2021/10/28 01:21:22;;;;;;;18.30;8.53;;;;;;;13.94;63.45;100428.72;4994012;28;20042;-66
2021/10/28 01:23:48;;;;;;;13.80;7.50;;;;;;;14.12;63.52;100462.69;4987670;28;20174;-67
2021/10/28 01:26:16;;;;;;;16.63;9.30;;;;;;;14.06;63.48;100439.50;4983602;28;20108;-65
2021/10/28 01:29:02;;;;;;;14.63;7.07;;;;;;;14.00;63.75;100440.72;4983590;28;20046;-63
2021/10/28 01:31:31;;;;;;;17.73;8.13;;;;;;;14.07;63.55;100443.13;4984248;28;20051;-65
2021/10/28 01:34:00;;;;;;;12.27;8.57;;;;;;;14.10;63.59;100439.72;4987311;28;20042;-64
2021/10/28 01:36:27;;;;;;;22.90;13.30;;;;;;;14.19;63.06;100446.31;4985640;28;20077;-65
2021/10/28 01:38:55;;;;;;;26.00;12.97;;;;;;;14.30;62.82;100450.59;4993198;28;20135;-65
2021/10/28 01:41:25;;;;;;;27.67;14.73;;;;;;;14.37;62.54;100448.22;4989932;28;20050;-69
2021/10/28 01:43:54;;;;;;;28.20;12.60;;;;;;;14.43;62.24;100438.56;4992610;28;20085;-66
2021/10/28 01:46:22;;;;;;;23.60;11.97;;;;;;;14.35;62.57;100441.22;4992253;28;20078;-69
2021/10/28 01:48:49;;;;;;;26.07;11.63;;;;;;;14.21;62.82;100430.78;4992046;28;20058;-66
2021/10/28 01:51:21;;;;;;;24.67;12.90;;;;;;;14.27;62.55;100433.53;4988981;28;20085;-67
2021/10/28 01:53:48;;;;;;;23.70;12.23;;;;;;;14.25;62.80;100436.63;4992938;28;20052;-66
2021/10/28 01:56:15;;;;;;;20.30;12.53;;;;;;;14.12;63.13;100435.47;4989244;28;20149;-69
2021/10/28 01:58:42;;;;;;;21.70;12.20;;;;;;;14.06;63.35;100433.88;4987992;28;20141;-66
2021/10/28 02:01:09;;;;;;;31.20;10.23;;;;;;;14.03;63.40;100428.06;4982365;28;20081;-71
2021/10/28 02:03:36;;;;;;;25.63;12.77;;;;;;;14.02;63.47;100427.22;4992398;28;20057;-67
2021/10/28 02:06:03;;;;;;;18.60;9.30;;;;;;;14.04;63.34;100430.53;4992566;28;20070;-68
2021/10/28 02:08:30;;;;;;;29.47;13.20;;;;;;;13.84;63.46;100403.63;4986060;28;20137;-68
2021/10/28 02:10:57;;;;;;;22.33;10.70;;;;;;;13.82;64.03;100408.75;4988073;28;20118;-70
2021/10/28 02:13:24;;;;;;;23.73;10.70;;;;;;;13.86;63.87;100412.59;4990130;28;20596;-69
2021/10/28 02:15:51;;;;;;;19.33;10.13;;;;;;;13.90;63.64;100427.69;4984281;28;20129;-69
2021/10/28 02:18:18;;;;;;;29.30;12.67;;;;;;;13.91;63.45;100417.28;4989462;28;20134;-68
2021/10/28 02:20:46;;;;;;;21.50;10.80;;;;;;;13.73;63.47;100385.31;4985233;28;20466;-75
2021/10/28 02:23:12;;;;;;;28.77;14.30;;;;;;;14.01;63.24;100447.16;4985084;28;20050;-74
2021/10/28 02:25:39;;;;;;;25.17;12.80;;;;;;;14.21;62.79;100470.13;4988847;28;20599;-75
2021/10/28 02:28:06;;;;;;;31.33;15.30;;;;;;;14.25;62.06;100470.34;4989088;28;20138;-75
2021/10/28 02:30:33;;;;;;;34.80;16.60;;;;;;;14.29;61.85;100454.56;4990672;28;20126;-76
2021/10/28 02:33:00;;;;;;;30.80;15.87;;;;;;;14.22;61.63;100454.97;4989716;28;20466;-76
2021/10/28 02:35:27;;;;;;;36.97;16.70;;;;;;;14.26;61.36;100441.13;4990805;28;20208;-77
2021/10/28 02:37:54;;;;;;;26.73;16.27;;;;;;;14.27;61.26;100445.59;4978191;28;20082;-75
2021/10/28 02:40:21;;;;;;;31.50;17.23;;;;;;;14.27;61.12;100437.16;4991514;28;20110;-71
2021/10/28 02:42:48;;;;;;;28.07;16.27;;;;;;;14.32;61.01;100439.88;4988988;28;20078;-73
2021/10/28 02:45:15;;;;;;;33.97;15.33;;;;;;;14.15;61.58;100422.78;4986086;28;20113;-73
2021/10/28 02:47:42;;;;;;;30.13;14.30;;;;;;;13.96;62.00;100404.00;4983141;28;20125;-73
2021/10/28 02:50:09;;;;;;;22.80;13.33;;;;;;;13.85;62.14;100377.25;5001503;28;20081;-72
2021/10/28 02:52:36;;;;;;;35.07;16.13;;;;;;;14.32;61.33;100430.63;5000851;28;20050;-73
2021/10/28 02:55:04;;;;;;;28.53;14.00;;;;;;;14.45;60.89;100427.00;4986424;28;20205;-73
2021/10/28 02:57:31;;;;;;;25.60;11.40;;;;;;;14.25;61.59;100411.34;4986849;28;20074;-73
2021/10/28 02:59:58;;;;;;;24.67;12.23;;;;;;;14.03;62.42;100414.00;4988923;28;20046;-72
2021/10/28 03:02:25;;;;;;;31.53;15.33;;;;;;;13.92;62.55;100417.00;4989810;28;20046;-61
2021/10/28 03:04:54;;;;;;;29.97;13.67;;;;;;;14.25;61.57;100436.63;4991424;28;20183;-61
2021/10/28 03:07:21;;;;;;;29.03;14.33;;;;;;;14.32;61.23;100428.63;4989436;28;20042;-62
2021/10/28 03:09:47;;;;;;;31.20;12.83;;;;;;;14.09;61.61;100396.78;4988085;28;20149;-65
2021/10/28 03:12:14;;;;;;;22.27;11.13;;;;;;;14.06;62.06;100417.03;4987348;28;20130;-65
2021/10/28 03:14:54;;;;;;;27.60;12.27;;;;;;;13.90;62.69;100408.03;4993866;28;20089;-62
2021/10/28 03:17:28;;;;;;;;;;;;;;;13.57;64.23;100397.91;4993242;28;20085;-62
2021/10/28 03:25:54;;;;;;;18.43;10.03;;;;;;;13.27;64.86;100389.66;4990782;28;20134;-62
2021/10/28 03:28:01;;;;;;;26.40;12.23;;;;;;;13.17;65.13;100391.75;4983146;28;20684;-63
2021/10/28 03:30:29;;;;;;;22.77;11.00;;;;;;;13.09;65.75;100389.59;4994284;28;20097;-60
2021/10/28 03:32:56;;;;;;;22.03;10.17;;;;;;;12.98;66.19;100381.34;4994146;28;20073;-61
2021/10/28 03:35:23;;;;;;;24.67;11.93;;;;;;;12.90;66.32;100376.41;4993925;28;20133;-60
2021/10/28 04:01:43;;;;;;;25.88;12.25;;;;;;;13.46;64.92;100353.19;4992383;28;20088;-62
2021/10/28 04:31:01;;;;;;;11.77;8.90;;;;;;;12.99;66.20;100346.59;4987980;28;20141;-61
2021/10/28 04:33:28;;;;;;;33.53;13.50;;;;;;;13.03;66.14;100344.84;4984295;28;20053;-62
2021/10/28 04:35:55;;;;;;;22.60;11.87;;;;;;;13.12;65.75;100338.53;4976483;28;20514;-61
2021/10/28 04:38:22;;;;;;;18.67;10.93;;;;;;;13.03;65.42;100319.59;4989021;28;20089;-62
2021/10/28 04:40:49;;;;;;;21.80;11.63;;;;;;;13.17;65.37;100339.31;4976663;28;20047;-60
2021/10/28 04:43:16;;;;;;;20.47;11.40;;;;;;;13.08;65.88;100321.50;4989835;28;20099;-65
2021/10/28 04:45:42;;;;;;;18.17;8.70;;;;;;;13.13;65.42;100331.78;4981855;28;20472;-63
2021/10/28 04:48:11;;;;;;;20.23;10.17;;;;;;;13.03;65.63;100324.38;4993462;28;20472;-63
2021/10/28 04:50:38;;;;;;;16.90;9.37;;;;;;;12.95;65.48;100311.84;4993563;28;20046;-61
2021/10/28 04:53:05;;;;;;;21.37;10.93;;;;;;;12.96;65.76;100324.75;4990367;28;20129;-61
2021/10/28 04:55:31;;;;;;;20.47;10.47;;;;;;;12.90;65.79;100316.72;4991589;28;20051;-62
2021/10/28 04:57:58;;;;;;;13.03;9.03;;;;;;;12.75;66.33;100314.94;4990484;28;20073;-63
2021/10/28 05:00:25;;;;;;;17.60;10.33;;;;;;;12.74;66.17;100316.09;4988340;28;20141;-64
2021/10/28 05:02:53;;;;;;;21.70;10.97;;;;;;;12.70;66.34;100312.22;4992861;28;20050;-62
2021/10/28 05:05:19;;;;;;;17.20;10.47;;;;;;;12.61;66.71;100308.41;4988541;28;20042;-62
2021/10/28 05:07:47;;;;;;;15.83;8.03;;;;;;;12.60;66.75;100316.00;4992263;28;20133;-61
2021/10/28 05:10:14;;;;;;;26.60;11.73;;;;;;;12.59;66.95;100305.09;4990975;28;20096;-61
2021/10/28 05:12:42;;;;;;;13.60;7.70;;;;;;;12.56;66.82;100307.34;4986274;28;20069;-66
2021/10/28 05:15:09;;;;;;;16.77;8.30;;;;;;;12.46;66.82;100293.47;4989236;28;20406;-66
2021/10/28 05:17:36;;;;;;;19.90;8.57;;;;;;;12.51;67.13;100299.03;4992741;28;20077;-61
2021/10/28 05:20:04;;;;;;;17.93;10.23;;;;;;;12.47;66.85;100297.94;4990058;28;20133;-64
2021/10/28 05:22:30;;;;;;;23.73;10.20;;;;;;;12.35;67.19;100288.31;4989785;28;20439;-65
2021/10/28 05:24:57;;;;;;;16.70;8.30;;;;;;;12.41;67.10;100303.91;4990551;28;20443;-64
2021/10/28 05:27:24;;;;;;;12.00;6.37;;;;;;;12.28;67.29;100283.09;4991585;28;20132;-66
2021/10/28 05:30:03;;;;;;;7.83;4.93;;;;;;;12.23;67.70;100292.34;4989644;28;20102;-65
2021/10/28 05:32:31;;;;;;;12.30;7.37;;;;;;;12.14;68.34;100294.16;4988501;28;20085;-65
2021/10/28 05:35:00;;;;;;;13.00;8.07;;;;;;;11.92;68.40;100282.66;4987116;28;20105;-67
2021/10/28 05:37:28;;;;;;;17.27;9.02;;;;;;;12.06;68.25;100298.44;4989089;28;20552;-66
2021/10/28 05:39:59;;;;;;;14.33;7.40;;;;;;;12.04;68.48;100295.09;4991347;28;20098;-66
2021/10/28 05:42:27;;;;;;;20.57;10.03;;;;;;;11.98;68.59;100289.88;4986209;28;20081;-66
2021/10/28 05:44:55;;;;;;;15.87;8.60;;;;;;;12.12;68.16;100306.78;4989409;28;20043;-68
2021/10/28 05:47:22;;;;;;;19.03;10.57;;;;;;;12.12;67.93;100295.59;4983135;28;20513;-68
2021/10/28 05:50:15;;;;;;;15.73;8.87;;;;;;;12.22;67.77;100307.50;4991544;28;20046;-68
2021/10/28 05:52:43;;;;;;;24.00;9.90;;;;;;;12.30;67.50;100311.59;4990255;28;20088;-65
2021/10/28 05:55:10;;;;;;;13.47;7.67;;;;;;;12.22;67.55;100306.66;4989789;28;20108;-68
2021/10/28 05:57:38;;;;;;;10.77;7.53;;;;;;;12.06;67.75;100292.81;4983040;28;20125;-65
2021/10/28 06:00:07;;;;;;;20.63;9.03;;;;;;;12.18;67.69;100300.00;4986595;28;20141;-67
2021/10/28 06:02:35;;;;;;;20.48;9.82;;;;;;;12.29;67.27;100301.53;4989144;28;20058;-67
2021/10/28 06:05:04;;;;;;;17.30;9.57;;;;;;;12.43;66.72;100296.88;4984247;28;20102;-65
2021/10/28 06:07:32;;;;;;;22.70;10.37;;;;;;;12.43;66.46;100307.25;4985426;28;20466;-68
2021/10/28 06:09:59;;;;;;;21.50;9.17;;;;;;;12.34;66.68;100298.66;4983191;28;20142;-68
2021/10/28 06:12:29;;;;;;;20.30;10.50;;;;;;;12.28;66.99;100305.47;4985559;28;20129;-70
2021/10/28 06:14:56;;;;;;;21.45;9.80;;;;;;;12.20;67.22;100286.53;4988346;28;20062;-69
2021/10/28 06:17:31;;;;;;;17.13;9.03;;;;;;;12.21;67.20;100300.25;4989112;28;20133;-70
2021/10/28 06:19:59;;;;;;;21.83;10.20;;;;;;;12.17;66.92;100281.53;4981516;28;20133;-66
2021/10/28 06:22:27;;;;;;;22.23;10.40;;;;;;;12.27;66.42;100287.00;4988116;28;20443;-66
2021/10/28 06:24:55;;;;;;;19.30;10.73;;;;;;;12.34;66.19;100270.66;4985989;28;20573;-66
2021/10/28 06:27:23;;;;;;;19.10;10.73;;;;;;;12.44;66.29;100292.94;4985589;28;20137;-66
2021/10/28 06:29:50;;;;;;;15.77;9.50;;;;;;;12.47;65.97;100292.34;4984739;28;20050;-66
2021/10/28 06:32:17;;;;;;;16.93;9.27;;;;;;;12.42;66.22;100294.41;4986788;28;20073;-66
2021/10/28 06:34:45;;;;;;;20.67;9.90;;;;;;;12.33;66.46;100288.59;4986862;28;20459;-65
2021/10/28 06:37:13;;;;;;;20.40;9.97;;;;;;;12.30;66.09;100286.41;4989180;28;20070;-65
2021/10/28 06:39:41;;;;;;;20.57;10.87;;;;;;;12.38;65.99;100305.34;4981442;28;20081;-66
2021/10/28 06:42:11;;;;;;;21.87;10.87;;;;;;;12.38;66.18;100287.72;4991037;28;20137;-68
2021/10/28 06:44:38;;;;;;;18.60;8.45;;;;;;;12.38;66.17;100287.72;4973717;28;20134;-65
2021/10/28 06:47:06;;;;;;;14.57;8.50;;;;;;;12.25;66.54;100278.06;4985365;28;20411;-65
2021/10/28 06:49:36;;;;;;;11.17;7.03;;;;;;;12.19;67.04;100279.25;4986143;28;20664;-64
2021/10/28 06:52:05;;;;;;;17.13;9.23;;;;;;;12.09;67.06;100277.41;4984410;28;20042;-64
2021/10/28 06:54:42;;;;;;;11.83;5.97;;;;;;;12.07;67.35;100276.91;4984463;28;20137;-64
2021/10/28 06:57:46;;;;;;;8.50;4.23;;;;;;;11.96;67.72;100264.97;4982868;28;20506;-64
2021/10/28 07:02:59;;;;;;;14.37;7.13;;;;;;;11.97;67.97;100272.25;4980878;28;20152;-64
2021/10/28 07:05:25;;;;;;;8.23;5.00;;;;;;;12.01;67.62;100273.31;4986903;28;20204;-64
2021/10/28 07:07:52;;;;;;;15.93;7.33;;;;;;;11.84;67.45;100239.38;4987888;28;20528;-64
2021/10/28 07:10:22;;;;;;;12.70;4.23;;;;;;;12.07;67.16;100263.72;4981140;28;20133;-64
2021/10/28 07:12:57;;;;;;;7.90;4.80;;;;;;;12.04;67.44;100269.91;4982913;28;20078;-64
2021/10/28 07:15:46;;;;;;;6.97;4.80;;;;;;;11.98;67.88;100273.91;4982102;28;20074;-63
2021/10/28 07:18:41;;;;;;;19.03;10.63;;;;;;;11.91;67.85;100259.44;4972908;28;20134;-63
2021/10/28 07:56:16;;;;;;;9.50;6.57;;;;;;;13.69;63.03;100311.31;4972722;28;20043;-63
2021/10/28 08:15:16;;;;;;;13.30;8.10;;;;;;;13.48;62.80;100310.81;4992135;28;20077;-65
2021/10/28 08:18:43;;;;;;;11.20;6.23;;;;;;;13.55;62.60;100311.25;4979848;28;20140;-64
2021/10/28 08:31:03;;;;;;;6.13;4.60;;;;;;;14.15;61.33;100310.44;4975732;28;20054;-65
2021/10/28 08:33:31;;;;;;;14.03;7.10;;;;;;;14.27;61.22;100298.72;4977984;28;20360;-65
2021/10/28 08:36:07;;;;;;;12.87;5.27;;;;;;;14.27;60.65;100279.88;4986548;28;20076;-65
2021/10/28 08:38:36;;;;;;;13.73;6.87;;;;;;;14.50;60.36;100292.09;4994800;28;20077;-65
2021/10/28 08:41:08;;;;;;;9.57;5.97;;;;;;;14.72;59.76;100287.69;4993808;28;20054;-65
2021/10/28 08:43:40;;;;;;;10.70;5.47;;;;;;;14.82;59.36;100296.72;4984560;28;20086;-65
2021/10/28 08:46:08;;;;;;;16.13;8.57;;;;;;;15.06;58.84;100298.44;4991872;28;20129;-65
2021/10/28 08:48:38;;;;;;;10.17;6.43;;;;;;;15.37;58.37;100292.91;4986038;28;20047;-65
2021/10/28 08:53:57;;;;;;;8.25;4.10;;;;;;;15.72;56.95;100282.72;4975308;28;20078;-65
2021/10/28 09:24:39;;;;;;;14.80;8.05;;;;;;;17.11;52.72;100294.53;4977544;28;20149;-68
2021/10/28 09:27:23;;;;;;;19.00;8.50;;;;;;;16.98;52.87;100295.50;4978262;28;20141;-67
2021/10/28 09:32:41;;;;;;;13.93;6.88;;;;;;;17.07;52.71;100299.19;4974557;28;20093;-67
2021/10/28 09:51:52;;;;;;;17.75;8.93;;;;;;;18.07;53.00;100292.44;4993247;28;20422;-68
2021/10/28 09:59:51;;;;;;;17.70;8.45;;;;;;;19.08;49.37;100269.97;4991988;28;20081;-67
2021/10/28 10:02:23;;;;;;;12.25;8.00;;;;;;;19.15;48.76;100264.59;4984491;28;20047;-68
2021/10/28 10:04:51;;;;;;;13.52;8.68;;;;;;;19.60;48.41;100269.50;4973956;28;20097;-68
2021/10/28 10:07:20;;;;;;;16.35;8.00;;;;;;;19.69;47.01;100268.63;4982636;28;20129;-68
2021/10/28 10:09:47;;;;;;;12.23;6.93;;;;;;;19.87;46.96;100279.44;4979791;28;20078;-67
2021/10/28 10:12:15;;;;;;;16.80;8.93;;;;;;;19.93;46.39;100259.34;4991711;28;20291;-66
2021/10/28 10:14:44;;;;;;;19.02;9.35;;;;;;;20.30;46.12;100277.25;4991112;28;20083;-67
2021/10/28 10:17:11;;;;;;;16.73;9.38;;;;;;;20.15;45.50;100272.28;4979884;28;20463;-67
2021/10/28 10:19:44;;;;;;;20.02;8.60;;;;;;;20.17;45.65;100269.91;4973576;28;20599;-68
2021/10/28 11:22:46;;;;;;;19.63;12.32;;;;;;;27.82;34.65;100227.38;4978556;28;20554;-66
2021/10/28 12:45:18;;;;;;;7.82;4.30;;;;;;;28.79;32.04;100124.84;4991489;28;20046;-67
2021/10/28 12:48:13;;;;;;;9.52;5.15;;;;;;;28.28;32.53;100120.41;4983060;28;20054;-67
2021/10/28 13:51:46;;;;;;;9.68;3.45;;;;;;;20.91;47.06;99987.75;4987201;28;20069;-68
2021/10/28 13:56:54;;;;;;;18.02;5.03;;;;;;;20.82;48.46;99992.81;4983983;28;20517;-68
2021/10/28 13:59:33;;;;;;;14.27;4.15;;;;;;;20.79;48.18;99967.97;4992169;28;20126;-68
2021/10/28 14:21:20;;;;;;;10.38;4.90;;;;;;;20.19;50.53;99961.38;4988873;28;20133;-67
2021/10/28 15:02:35;;;;;;;12.68;5.32;;;;;;;20.12;57.03;99961.97;4983236;28;20050;-67
2021/10/28 15:33:06;;;;;;;7.53;2.17;;;;;;;19.48;60.64;99940.13;4996060;28;20137;-67
2021/10/28 16:23:45;;;;;;;6.53;2.58;;;;;;;18.78;64.63;99924.06;4990660;28;20470;-67
2021/10/28 16:26:12;;;;;;;4.55;2.25;;;;;;;18.73;64.28;99917.81;4978183;28;20133;-60
2021/10/28 16:28:39;;;;;;;8.45;2.65;;;;;;;18.85;64.73;99915.00;4991907;28;20540;-62
2021/10/28 16:31:05;;;;;;;4.38;1.70;;;;;;;18.79;64.59;99910.75;4982764;28;20077;-64
2021/10/28 16:33:33;;;;;;;7.45;2.97;;;;;;;18.64;65.16;99915.06;4993052;28;20446;-62
2021/10/28 16:36:00;;;;;;;6.63;2.40;;;;;;;18.46;65.55;99903.09;4989277;28;20130;-61
2021/10/28 16:38:27;;;;;;;7.75;2.80;;;;;;;18.74;64.71;99919.47;4978428;28;20078;-64
2021/10/28 16:40:54;;;;;;;7.80;2.40;;;;;;;18.71;65.17;99932.28;4982997;28;20054;-62
2021/10/28 16:43:21;;;;;;;2.63;1.63;;;;;;;18.75;64.80;99899.31;4977197;28;20526;-61
2021/10/28 16:45:48;;;;;;;6.80;2.20;;;;;;;18.50;66.05;99897.59;4991453;28;20197;-61
2021/10/28 16:48:16;;;;;;;4.07;1.25;;;;;;;18.40;65.89;99877.09;4981922;28;20487;-63
2021/10/28 16:50:43;;;;;;;2.85;1.50;;;;;;;18.42;65.69;99874.72;4989872;28;20125;-62
2021/10/28 16:53:10;;;;;;;7.03;1.75;;;;;;;18.30;65.80;99882.34;4990263;28;20571;-62
2021/10/28 16:55:56;;;;;;;4.40;1.80;;;;;;;18.50;65.64;99904.09;4991890;28;20081;-63
2021/10/28 16:58:23;;;;;;;3.53;2.10;;;;;;;18.48;65.82;99895.13;4991692;28;22266;-63
2021/10/28 17:00:50;;;;;;;4.07;1.50;;;;;;;18.47;65.56;99890.66;4989762;28;20096;-62
2021/10/28 17:03:18;;;;;;;3.67;1.52;;;;;;;18.22;65.98;99851.00;4990780;28;20046;-63
2021/10/28 17:05:46;;;;;;;2.90;1.20;;;;;;;18.27;66.30;99857.63;4988006;28;20043;-64
2021/10/28 17:08:14;;;;;;;4.57;1.48;;;;;;;18.38;66.22;99861.63;4992155;28;20051;-63
2021/10/28 17:10:42;;;;;;;2.92;2.15;;;;;;;18.34;66.32;99858.69;4989490;28;20469;-64
2021/10/28 17:13:09;;;;;;;10.50;2.30;;;;;;;18.21;66.76;99857.81;4987068;28;20073;-62
2021/10/28 17:15:36;;;;;;;4.97;1.70;;;;;;;18.13;66.94;99807.88;4988670;28;20154;-61
2021/10/28 17:18:03;;;;;;;2.97;1.40;;;;;;;17.95;68.11;99815.72;4990838;28;20061;-63
2021/10/28 17:20:35;;;;;;;5.05;1.35;;;;;;;17.89;69.05;99817.13;4986218;28;20089;-63
2021/10/28 17:23:04;;;;;;;1.85;1.15;;;;;;;17.64;69.97;99787.94;4987170;28;20466;-63
2021/10/28 17:25:37;;;;;;;4.27;1.60;;;;;;;17.54;70.71;99796.81;4984502;28;20078;-63
2021/10/28 17:28:04;;;;;;;7.07;2.08;;;;;;;17.35;72.38;99807.78;4977989;28;20086;-63
2021/10/28 17:30:31;;;;;;;3.20;2.05;;;;;;;17.22;72.30;99782.31;4989064;28;20113;-63
2021/10/28 17:33:00;;;;;;;9.20;2.20;;;;;;;17.37;72.43;99805.44;4991813;28;20050;-65
2021/10/28 17:35:26;;;;;;;5.82;3.08;;;;;;;17.41;72.03;99800.75;4991557;28;20521;-59
2021/10/28 17:37:55;;;;;;;4.95;2.55;;;;;;;17.36;72.86;99821.53;4988506;28;20526;-59
2021/10/28 17:40:24;;;;;;;5.03;1.83;;;;;;;17.37;72.54;99794.16;4992711;28;20129;-63
2021/10/28 17:42:55;;;;;;;3.67;1.83;;;;;;;17.50;72.50;99798.66;4986022;28;20145;-58
2021/10/28 17:45:26;;;;;;;3.15;1.88;;;;;;;17.44;73.25;99794.44;4983962;28;20594;-62
2021/10/28 17:47:54;;;;;;;5.40;2.47;;;;;;;17.45;72.86;99801.72;4991847;28;20125;-64
2021/10/28 17:50:22;;;;;;;3.92;2.47;;;;;;;17.28;72.67;99772.47;4991996;28;20446;-63
2021/10/28 17:52:50;;;;;;;3.35;1.60;;;;;;;17.45;73.22;99825.13;4989062;28;20133;-61
2021/10/28 17:55:17;;;;;;;10.40;3.13;;;;;;;17.31;73.92;99824.56;4988436;28;20129;-62
2021/10/28 17:57:45;;;;;;;6.78;2.10;;;;;;;16.98;73.74;99759.59;4991752;28;20132;-63
2021/10/28 18:00:13;;;;;;;1.92;1.42;;;;;;;17.21;74.15;99806.06;4987510;28;20078;-63
2021/10/28 18:02:40;;;;;;;5.72;1.90;;;;;;;17.16;74.66;99828.84;4988133;28;20082;-63
2021/10/28 18:05:08;;;;;;;7.25;2.33;;;;;;;16.82;74.25;99781.94;4987655;28;20046;-63
2021/10/28 18:07:35;;;;;;;6.63;3.63;;;;;;;17.08;74.23;99815.59;4991402;28;20842;-62
2021/10/28 18:10:05;;;;;;;3.63;2.20;;;;;;;16.99;74.50;99806.34;4987973;28;20074;-63
2021/10/28 18:12:35;;;;;;;3.53;1.83;;;;;;;16.88;75.98;99808.75;4991894;28;20046;-63
2021/10/28 18:15:04;;;;;;;6.07;2.80;;;;;;;16.88;75.85;99810.75;4989618;28;20134;-62
2021/10/28 18:17:32;;;;;;;6.22;2.65;;;;;;;16.72;76.45;99797.22;4984941;28;20133;-63
2021/10/28 18:20:00;;;;;;;4.57;2.25;;;;;;;16.70;76.70;99799.53;4983898;28;20047;-63
2021/10/28 18:22:27;;;;;;;1.33;1.02;;;;;;;16.68;77.11;99796.22;4979066;28;20054;-62
2021/10/28 18:24:54;;;;;;;7.20;2.15;;;;;;;16.54;77.79;99788.00;4992278;28;20074;-62
2021/10/28 18:27:21;;;;;;;3.72;2.10;;;;;;;16.34;79.16;99780.31;4979130;28;20621;-65
2021/10/28 18:29:48;;;;;;;3.03;2.08;;;;;;;16.29;78.92;99772.88;4986674;28;20042;-63
2021/10/28 18:32:15;;;;;;;3.63;1.80;;;;;;;16.30;79.87;99774.53;4980587;28;20125;-62
2021/10/28 18:34:44;;;;;;;5.40;2.17;;;;;;;15.94;79.79;99715.06;4989017;28;20085;-62
2021/10/28 18:37:11;;;;;;;5.38;2.03;;;;;;;16.23;80.51;99771.41;4989858;28;20108;-63
2021/10/28 18:39:40;;;;;;;6.15;2.08;;;;;;;16.31;80.08;99781.84;4989347;28;20126;-63
2021/10/28 18:42:07;;;;;;;10.43;1.90;;;;;;;16.33;80.06;99793.56;4990208;28;20553;-63
2021/10/28 18:44:34;;;;;;;9.32;2.88;;;;;;;16.33;79.94;99790.75;4973869;28;20070;-59
2021/10/28 18:47:01;;;;;;;4.35;2.13;;;;;;;16.38;79.73;99795.41;4980533;28;20125;-62
2021/10/28 18:49:28;;;;;;;4.68;1.92;;;;;;;16.35;79.70;99788.44;4972942;28;20046;-63
2021/10/28 18:51:55;;;;;;;8.80;3.33;;;;;;;16.30;79.88;99791.44;4972149;28;20439;-62
2021/10/28 18:54:23;;;;;;;6.65;2.55;;;;;;;16.41;79.44;99793.88;4979289;28;20134;-66
2021/10/28 18:56:49;;;;;;;8.35;1.80;;;;;;;16.28;80.26;99792.97;4983087;28;20084;-63
2021/10/28 18:59:17;;;;;;;3.47;2.27;;;;;;;16.15;79.86;99763.84;4973454;28;20051;-63
2021/10/28 19:01:47;;;;;;;6.73;2.33;;;;;;;16.37;79.79;99784.44;4984958;28;20105;-62
2021/10/28 19:04:14;;;;;;;3.95;1.98;;;;;;;16.33;79.83;99801.22;4983707;28;20125;-63
2021/10/28 19:06:41;;;;;;;4.80;2.83;;;;;;;15.91;80.55;99732.63;4991435;28;20050;-63
2021/10/28 19:09:08;;;;;;;8.23;2.72;;;;;;;16.20;80.66;99805.88;4984946;28;20079;-61
2021/10/28 19:11:35;;;;;;;4.03;2.00;;;;;;;16.05;80.68;99775.47;4988788;28;20134;-62
2021/10/28 19:14:02;;;;;;;4.68;2.50;;;;;;;16.08;80.92;99772.81;4985807;28;20082;-64
2021/10/28 19:16:29;;;;;;;4.67;2.73;;;;;;;16.08;81.02;99792.50;4982702;28;20042;-64
2021/10/28 19:18:56;;;;;;;6.07;2.90;;;;;;;16.14;80.24;99804.44;4984880;28;20047;-63
2021/10/28 19:21:24;;;;;;;9.60;4.20;;;;;;;16.01;80.68;99794.19;4990045;28;20050;-63
2021/10/28 19:23:51;;;;;;;4.77;2.50;;;;;;;15.95;81.26;99813.25;4983753;28;20058;-63
2021/10/28 19:26:18;;;;;;;5.03;2.53;;;;;;;15.81;81.12;99793.75;4987918;28;20038;-62
2021/10/28 19:28:45;;;;;;;6.73;2.33;;;;;;;16.02;80.84;99807.13;4995392;28;20125;-61
2021/10/28 19:31:24;;;;;;;7.37;3.13;;;;;;;15.99;80.60;99802.97;4988373;28;20074;-62
2021/10/28 19:33:54;;;;;;;4.40;2.97;;;;;;;15.99;80.49;99783.25;4986742;28;20137;-62
2021/10/28 19:47:01;;;;;;;4.53;2.37;;;;;;;15.84;81.40;99758.47;4976106;28;20055;-64
2021/10/28 19:49:29;;;;;;;3.73;2.50;;;;;;;15.68;81.89;99762.97;4989280;28;20046;-61
2021/10/28 19:51:56;;;;;;;5.73;3.10;;;;;;;15.65;81.87;99758.78;4987208;28;20814;-63
2021/10/28 19:54:23;;;;;;;6.15;2.00;;;;;;;15.67;82.17;99807.19;4978679;28;20149;-63
2021/10/28 19:56:50;;;;;;;4.37;2.80;;;;;;;15.63;82.53;99722.56;4989820;28;20077;-66
2021/10/28 19:59:18;;;;;;;4.13;2.53;;;;;;;15.67;82.35;99742.44;4991364;28;20177;-63
2021/10/28 20:14:59;;;;;;;4.37;3.00;;;;;;;15.46;83.22;99694.47;4990285;28;20498;-67
2021/10/28 20:20:31;;;;;;;4.40;2.63;;;;;;;15.38;83.49;99714.97;4993362;28;20065;-74
2021/10/28 20:22:59;;;;;;;3.03;2.10;;;;;;;15.32;83.51;99711.53;4985584;28;20141;-62
2021/10/28 20:25:27;;;;;;;3.83;2.53;;;;;;;15.38;83.34;99727.06;4987963;28;20384;-65
2021/10/28 20:27:56;;;;;;;11.13;4.07;;;;;;;15.27;83.80;99720.13;4982137;28;20096;-67
2021/10/28 20:30:27;;;;;;;5.67;2.83;;;;;;;15.37;83.45;99702.06;4987393;28;20137;-68
2021/10/28 20:32:54;;;;;;;5.93;3.60;;;;;;;15.24;83.66;99675.78;4990938;28;20125;-68
2021/10/28 20:37:52;;;;;;;6.07;3.33;;;;;;;15.47;83.82;99689.66;4990391;28;20051;-72
2021/10/28 20:40:19;;;;;;;3.80;2.43;;;;;;;15.50;83.78;99700.25;4992368;28;20085;-71
2021/10/28 20:42:47;;;;;;;4.57;2.97;;;;;;;15.55;83.80;99708.50;4990362;28;20133;-72
2021/10/28 20:45:19;;;;;;;8.60;1.50;;;;;;;15.51;83.95;99690.63;4982970;28;20620;-72
2021/10/28 20:47:47;;;;;;;5.53;3.53;;;;;;;15.62;84.02;99700.34;4981663;28;20146;-72